Time,TemperatureF,DewpointF,PressureIn,WindDirection,WindDirectionDegrees,WindSpeedMPH,WindSpeedGustMPH,Humidity,HourlyPrecipIn,Conditions,Clouds,dailyrainin,SoftwareType,DateUTC
2013-07-10 00:11:00,65.1,63.0,30.02,SSE,155,0.0,3.0,92,0.00,,,0.00,weatherlink.com 1.10,2013-07-10 04:11:00,
2013-07-10 00:26:00,63.8,62.0,30.03,SSE,165,1.0,4.0,94,0.00,,,0.00,weatherlink.com 1.10,2013-07-10 04:26:00,
2013-07-10 00:41:00,63.1,62.0,30.03,SE,144,0.0,2.0,96,0.00,,,0.00,weatherlink.com 1.10,2013-07-10 04:41:00,
2013-07-10 00:56:00,63.5,63.0,30.02,South,174,1.0,3.0,97,0.00,,,0.00,weatherlink.com 1.10,2013-07-10 04:56:00,
2013-07-10 01:11:00,63.3,63.0,30.02,SE,143,0.0,1.0,97,0.00,,,0.00,weatherlink.com 1.10,2013-07-10 05:11:00,
2013-07-10 01:26:00,62.7,62.0,30.01,SE,144,0.0,1.0,97,0.00,,,0.00,weatherlink.com 1.10,2013-07-10 05:26:00,
2013-07-10 01:41:00,63.1,63.0,30.01,SE,146,0.0,1.0,98,0.00,,,0.00,weatherlink.com 1.10,2013-07-10 05:41:00,
2013-07-10 01:56:00,63.4,63.0,30.01,South,171,0.0,1.0,98,0.00,,,0.00,weatherlink.com 1.10,2013-07-10 05:56:00,
2013-07-10 02:11:00,63.1,63.0,30.01,South,186,2.0,4.0,98,0.00,,,0.00,weatherlink.com 1.10,2013-07-10 06:11:00,
2013-07-10 02:26:00,62.9,62.0,30.00,SSE,161,0.0,3.0,98,0.00,,,0.00,weatherlink.com 1.10,2013-07-10 06:26:00,
2013-07-10 02:41:00,63.3,63.0,29.99,SSE,157,0.0,1.0,98,0.00,,,0.00,weatherlink.com 1.10,2013-07-10 06:41:00,
2013-07-10 02:56:00,64.1,64.0,29.98,SSE,165,0.0,2.0,98,0.00,,,0.00,weatherlink.com 1.10,2013-07-10 06:56:00,
2013-07-10 03:11:00,64.9,65.0,29.97,SSW,213,5.0,7.0,99,0.00,,,0.00,weatherlink.com 1.10,2013-07-10 07:11:00,
2013-07-10 03:26:00,64.9,65.0,29.97,SW,225,0.0,4.0,99,0.00,,,0.00,weatherlink.com 1.10,2013-07-10 07:26:00,
2013-07-10 03:41:00,65.0,64.0,29.97,SW,225,0.0,3.0,97,0.00,,,0.00,weatherlink.com 1.10,2013-07-10 07:41:00,
2013-07-10 03:56:00,65.2,64.0,29.96,SW,225,0.0,2.0,94,0.00,,,0.00,weatherlink.com 1.10,2013-07-10 07:56:00,
2013-07-10 04:11:00,65.5,64.0,29.96,West,270,3.0,4.0,93,0.00,,,0.00,weatherlink.com 1.10,2013-07-10 08:11:00,
2013-07-10 04:26:00,65.4,63.0,29.97,West,267,3.0,3.0,93,0.00,,,0.00,weatherlink.com 1.10,2013-07-10 08:26:00,
2013-07-10 04:41:00,65.3,64.0,29.97,West,259,3.0,7.0,95,0.00,,,0.00,weatherlink.com 1.10,2013-07-10 08:41:00,
2013-07-10 04:56:00,65.2,64.0,29.97,West,267,4.0,5.0,95,0.00,,,0.00,weatherlink.com 1.10,2013-07-10 08:56:00,
2013-07-10 05:11:00,65.0,64.0,29.96,West,273,3.0,6.0,96,0.00,,,0.00,weatherlink.com 1.10,2013-07-10 09:11:00,
2013-07-10 05:59:00,64.9,64.0,29.97,WSW,257,2.0,5.0,95,0.00,,,0.00,weatherlink.com 1.10,2013-07-10 09:59:00,
2013-07-10 06:12:00,64.8,63.0,29.98,WNW,288,3.0,6.0,95,0.00,,,0.00,weatherlink.com 1.10,2013-07-10 10:12:00,
2013-07-10 06:27:00,64.8,63.0,29.98,West,259,3.0,5.0,95,0.00,,,0.00,weatherlink.com 1.10,2013-07-10 10:27:00,
2013-07-10 06:42:00,64.6,64.0,29.98,West,271,2.0,4.0,96,0.00,,,0.00,weatherlink.com 1.10,2013-07-10 10:42:00,
2013-07-10 06:57:00,64.6,64.0,29.98,West,271,1.0,3.0,96,0.00,,,0.00,weatherlink.com 1.10,2013-07-10 10:57:00,
2013-07-10 07:12:00,64.9,64.0,29.98,NW,307,4.0,4.0,96,0.00,,,0.00,weatherlink.com 1.10,2013-07-10 11:12:00,
2013-07-10 07:27:00,65.3,64.0,29.98,NW,307,2.0,5.0,96,0.00,,,0.00,weatherlink.com 1.10,2013-07-10 11:27:00,
2013-07-10 07:42:00,65.6,64.0,29.98,NW,311,1.0,4.0,95,0.00,,,0.00,weatherlink.com 1.10,2013-07-10 11:42:00,
2013-07-10 07:57:00,65.8,64.0,29.98,WNW,288,1.0,3.0,95,0.00,,,0.00,weatherlink.com 1.10,2013-07-10 11:57:00,
2013-07-10 08:12:00,66.0,65.0,29.98,WNW,297,2.0,4.0,95,0.00,,,0.00,weatherlink.com 1.10,2013-07-10 12:12:00,
2013-07-10 08:27:00,66.8,65.0,29.98,WNW,300,1.0,3.0,95,0.00,,,0.00,weatherlink.com 1.10,2013-07-10 12:27:00,
2013-07-10 08:42:00,67.6,66.0,29.98,WNW,300,0.0,2.0,95,0.00,,,0.00,weatherlink.com 1.10,2013-07-10 12:42:00,
2013-07-10 08:57:00,68.4,67.0,29.98,WNW,300,0.0,1.0,94,0.00,,,0.00,weatherlink.com 1.10,2013-07-10 12:57:00,
2013-07-10 09:12:00,69.1,67.0,29.98,WNW,300,0.0,2.0,93,0.00,,,0.00,weatherlink.com 1.10,2013-07-10 13:12:00,
2013-07-10 09:42:00,70.7,68.0,29.98,North,355,1.0,2.0,92,0.00,,,0.00,weatherlink.com 1.10,2013-07-10 13:42:00,
2013-07-10 09:57:00,71.3,68.0,29.98,West,278,0.0,1.0,89,0.00,,,0.00,weatherlink.com 1.10,2013-07-10 13:57:00,
2013-07-10 10:12:00,71.9,68.0,29.98,NW,318,0.0,2.0,88,0.00,,,0.00,weatherlink.com 1.10,2013-07-10 14:12:00,
2013-07-10 10:27:00,70.9,68.0,29.98,NNW,336,1.0,2.0,89,0.00,,,0.00,weatherlink.com 1.10,2013-07-10 14:27:00,
2013-07-10 10:42:00,70.9,68.0,29.98,West,266,1.0,4.0,90,0.00,,,0.00,weatherlink.com 1.10,2013-07-10 14:42:00,
2013-07-10 10:57:00,71.9,68.0,29.99,West,271,2.0,4.0,88,0.00,,,0.00,weatherlink.com 1.10,2013-07-10 14:57:00,
2013-07-10 11:12:00,72.8,69.0,29.98,West,276,3.0,5.0,87,0.00,,,0.00,weatherlink.com 1.10,2013-07-10 15:12:00,
2013-07-10 11:27:00,73.4,69.0,29.98,West,271,0.0,4.0,86,0.00,,,0.00,weatherlink.com 1.10,2013-07-10 15:27:00,
2013-07-10 11:42:00,75.2,70.0,29.97,WSW,241,0.0,3.0,83,0.00,,,0.00,weatherlink.com 1.10,2013-07-10 15:42:00,
2013-07-10 11:57:00,76.0,69.0,29.97,WSW,242,1.0,3.0,80,0.00,,,0.00,weatherlink.com 1.10,2013-07-10 15:57:00,
2013-07-10 12:12:00,74.2,69.0,29.97,West,279,2.0,5.0,83,0.00,,,0.00,weatherlink.com 1.10,2013-07-10 16:12:00,
2013-07-10 12:27:00,73.5,69.0,29.96,West,259,0.0,4.0,86,0.00,,,0.00,weatherlink.com 1.10,2013-07-10 16:27:00,
2013-07-10 12:42:00,76.2,70.0,29.95,North,355,1.0,2.0,80,0.00,,,0.00,weatherlink.com 1.10,2013-07-10 16:42:00,
2013-07-10 12:57:00,77.5,71.0,29.95,SW,226,0.0,3.0,80,0.00,,,0.00,weatherlink.com 1.10,2013-07-10 16:57:00,
2013-07-10 13:12:00,79.9,71.0,29.94,SSW,209,0.0,3.0,74,0.00,,,0.00,weatherlink.com 1.10,2013-07-10 17:12:00,
2013-07-10 13:27:00,80.9,71.0,29.93,WNW,298,0.0,4.0,72,0.00,,,0.00,weatherlink.com 1.10,2013-07-10 17:27:00,
2013-07-10 13:42:00,80.8,70.0,29.93,West,279,0.0,3.0,69,0.00,,,0.00,weatherlink.com 1.10,2013-07-10 17:42:00,
2013-07-10 13:57:00,79.9,71.0,29.92,WSW,241,0.0,3.0,74,0.00,,,0.00,weatherlink.com 1.10,2013-07-10 17:57:00,
2013-07-10 14:13:00,80.0,70.0,29.92,SW,215,0.0,3.0,72,0.00,,,0.00,weatherlink.com 1.10,2013-07-10 18:13:00,
2013-07-10 14:28:00,80.3,70.0,29.91,West,271,0.0,4.0,70,0.00,,,0.00,weatherlink.com 1.10,2013-07-10 18:28:00,
2013-07-10 14:43:00,76.2,69.0,29.91,West,269,2.0,5.0,77,0.00,,,0.00,weatherlink.com 1.10,2013-07-10 18:43:00,
2013-07-10 14:58:00,73.5,68.0,29.92,West,272,1.0,3.0,83,0.00,,,0.00,weatherlink.com 1.10,2013-07-10 18:58:00,
2013-07-10 15:13:00,73.7,67.0,29.91,West,272,1.0,3.0,80,0.00,,,0.00,weatherlink.com 1.10,2013-07-10 19:13:00,
2013-07-10 15:28:00,73.5,68.0,29.90,West,269,1.0,4.0,84,0.00,,,0.00,weatherlink.com 1.10,2013-07-10 19:28:00,
2013-07-10 15:43:00,74.3,69.0,29.89,NW,305,5.0,7.0,83,0.00,,,0.00,weatherlink.com 1.10,2013-07-10 19:43:00,
2013-07-10 15:58:00,72.8,67.0,29.90,West,265,1.0,4.0,83,0.00,,,0.00,weatherlink.com 1.10,2013-07-10 19:58:00,
2013-07-10 16:13:00,70.9,66.0,29.89,West,278,3.0,6.0,84,0.00,,,0.00,weatherlink.com 1.10,2013-07-10 20:13:00,
2013-07-10 16:28:00,72.2,66.0,29.88,West,272,2.0,6.0,82,0.00,,,0.00,weatherlink.com 1.10,2013-07-10 20:28:00,
2013-07-10 16:43:00,74.5,69.0,29.87,WNW,285,2.0,6.0,83,0.00,,,0.00,weatherlink.com 1.10,2013-07-10 20:43:00,
2013-07-10 16:58:00,73.5,68.0,29.87,WSW,254,3.0,5.0,82,0.00,,,0.00,weatherlink.com 1.10,2013-07-10 20:58:00,
2013-07-10 17:13:00,75.3,70.0,29.87,West,274,2.0,6.0,83,0.00,,,0.00,weatherlink.com 1.10,2013-07-10 21:13:00,
2013-07-10 17:28:00,72.9,68.0,29.87,West,266,4.0,6.0,85,0.00,,,0.00,weatherlink.com 1.10,2013-07-10 21:28:00,
2013-07-10 17:43:00,68.8,66.0,29.87,West,265,6.0,8.0,92,0.00,,,0.00,weatherlink.com 1.10,2013-07-10 21:43:00,
2013-07-10 17:58:00,67.6,66.0,29.87,West,266,5.0,8.0,94,0.00,,,0.00,weatherlink.com 1.10,2013-07-10 21:58:00,
2013-07-10 18:13:00,67.3,66.0,29.87,WSW,250,4.0,8.0,95,0.01,,,0.01,weatherlink.com 1.10,2013-07-10 22:13:00,
2013-07-10 18:28:00,66.6,66.0,29.88,SW,236,2.0,5.0,96,0.12,,,0.12,weatherlink.com 1.10,2013-07-10 22:28:00,
2013-07-10 18:43:00,65.8,65.0,29.89,SSW,211,1.0,6.0,96,0.35,,,0.35,weatherlink.com 1.10,2013-07-10 22:43:00,
2013-07-10 18:58:00,65.4,64.0,29.89,South,171,0.0,2.0,95,0.36,,,0.36,weatherlink.com 1.10,2013-07-10 22:58:00,
2013-07-10 19:13:00,65.4,63.0,29.89,South,187,1.0,4.0,92,0.35,,,0.36,weatherlink.com 1.10,2013-07-10 23:13:00,
2013-07-10 19:28:00,65.4,63.0,29.89,South,187,0.0,2.0,93,0.24,,,0.36,weatherlink.com 1.10,2013-07-10 23:28:00,
2013-07-10 19:43:00,65.9,64.0,29.90,ESE,119,0.0,3.0,93,0.01,,,0.36,weatherlink.com 1.10,2013-07-10 23:43:00,
2013-07-10 19:58:00,65.7,64.0,29.90,SSE,156,2.0,4.0,95,0.00,,,0.36,weatherlink.com 1.10,2013-07-10 23:58:00,
2013-07-10 20:13:00,65.7,64.0,29.90,SE,137,0.0,3.0,94,0.00,,,0.36,weatherlink.com 1.10,2013-07-11 00:13:00,
2013-07-10 20:28:00,65.4,64.0,29.91,SE,137,1.0,1.0,94,0.00,,,0.36,weatherlink.com 1.10,2013-07-11 00:28:00,
2013-07-10 20:43:00,64.9,64.0,29.91,SSE,150,0.0,2.0,95,0.00,,,0.36,weatherlink.com 1.10,2013-07-11 00:43:00,
2013-07-10 20:58:00,64.5,63.0,29.90,South,190,2.0,2.0,95,0.00,,,0.36,weatherlink.com 1.10,2013-07-11 00:58:00,
2013-07-10 21:13:00,64.6,63.0,29.90,South,190,1.0,1.0,95,0.00,,,0.36,weatherlink.com 1.10,2013-07-11 01:13:00,
2013-07-10 21:28:00,64.7,63.0,29.89,SSE,150,1.0,3.0,95,0.00,,,0.36,weatherlink.com 1.10,2013-07-11 01:28:00,
2013-07-10 21:43:00,65.1,63.0,29.90,SE,146,0.0,3.0,94,0.00,,,0.36,weatherlink.com 1.10,2013-07-11 01:43:00,
2013-07-10 21:58:00,64.8,63.0,29.91,South,182,4.0,4.0,95,0.00,,,0.36,weatherlink.com 1.10,2013-07-11 01:58:00,
2013-07-10 22:13:00,64.8,64.0,29.90,South,184,0.0,4.0,97,0.00,,,0.36,weatherlink.com 1.10,2013-07-11 02:13:00,
2013-07-10 22:28:00,64.3,64.0,29.89,SSE,155,0.0,3.0,97,0.00,,,0.36,weatherlink.com 1.10,2013-07-11 02:28:00,
2013-07-10 22:43:00,64.0,64.0,29.88,South,174,0.0,4.0,98,0.00,,,0.36,weatherlink.com 1.10,2013-07-11 02:43:00,
2013-07-10 22:58:00,64.0,64.0,29.88,SSE,161,0.0,3.0,98,0.00,,,0.36,weatherlink.com 1.10,2013-07-11 02:58:00,
2013-07-10 23:13:00,63.8,63.0,29.88,South,182,2.0,3.0,98,0.00,,,0.36,weatherlink.com 1.10,2013-07-11 03:13:00,
2013-07-10 23:28:00,63.7,63.0,29.89,SSE,150,0.0,3.0,98,0.00,,,0.36,weatherlink.com 1.10,2013-07-11 03:28:00,
2013-07-10 23:43:00,63.7,64.0,29.87,SSW,206,3.0,4.0,99,0.00,,,0.36,weatherlink.com 1.10,2013-07-11 03:43:00,
2013-07-10 23:58:00,63.7,64.0,29.88,SSE,156,1.0,2.0,99,0.00,,,0.36,weatherlink.com 1.10,2013-07-11 03:58:00,